Tahoma, California
Current Conditions -  °F | °C
As of 9:53 AM on Thursday 27 Nov 2014 (Local Time) from KTVL Reporting Station
Clear Clear  
Wind Chill: 60°   Ceiling: Unl
Heat Index: 60°   Visibility: 10mi
Dew Point: 20°   Wind: 12mph
Humidity: 21%   Direction: 170°S
Pressure: 30.34"   Gusts: NA
Location:  39.05°N, 120.13°W
Report Text: KTVL 271753Z AUTO 17010KT 10SM CLR 16/M07 A3034 RMK AO2 SLP247 T01561067 10156 20017 51002
Loading
Personal Weather Stations






























Interactive Weather Map New forecast layout! Learn more

10-Day Weather Forecast

Advertisements
Track Severe Weather on mobile